Time;durP1;ratioP1;P1;durP2;ratioP2;P2;SDS_P1;SDS_P2;PMS_P1;PMS_P2;Temp;Humidity;BMP_temperature;BMP_pressure;BME280_temperature;BME280_humidity;BME280_pressure;Samples;Min_cycle;Max_cycle;Signal;HPM_P1;HPM_P2
2023/07/21 00:04:55;;;;;;;6.28;2.30;;;;;;;;;;10285989;28;20042;-53
2023/07/21 00:09:59;;;;;;;3.97;2.08;;;;;;;;;;10284901;28;20038;-54
2023/07/21 00:14:59;;;;;;;3.58;2.47;;;;;;;;;;10285568;28;20027;-54
2023/07/21 00:20:18;;;;;;;3.58;2.17;;;;;;;;;;10285595;28;20034;-53
2023/07/21 00:25:19;;;;;;;3.13;1.92;;;;;;;;;;10293488;28;20073;-56
2023/07/21 00:30:22;;;;;;;3.75;2.03;;;;;;;;;;10284868;28;20121;-53
2023/07/21 00:35:22;;;;;;;3.42;2.15;;;;;;;;;;10284799;28;20105;-53
2023/07/21 00:40:23;;;;;;;8.23;2.67;;;;;;;;;;10284512;28;20113;-54
2023/07/21 00:45:24;;;;;;;3.08;2.08;;;;;;;;;;10284950;28;20027;-55
2023/07/21 00:50:24;;;;;;;5.03;2.38;;;;;;;;;;10267287;28;20038;-55
2023/07/21 00:55:25;;;;;;;4.70;2.40;;;;;;;;;;10282187;28;20031;-54
2023/07/21 01:00:27;;;;;;;2.15;1.95;;;;;;;;;;10282950;28;20035;-55
2023/07/21 01:05:32;;;;;;;4.93;2.00;;;;;;;;;;10283520;28;20019;-55
2023/07/21 01:10:34;;;;;;;2.10;1.58;;;;;;;;;;10267445;28;20038;-55
2023/07/21 01:15:37;;;;;;;3.45;2.17;;;;;;;;;;10265922;28;20034;-55
2023/07/21 01:20:39;;;;;;;3.42;2.00;;;;;;;;;;10266998;28;20030;-56
2023/07/21 01:25:42;;;;;;;2.15;1.83;;;;;;;;;;10272641;28;20043;-56
2023/07/21 01:30:45;;;;;;;5.80;1.80;;;;;;;;;;10266251;28;20050;-55
2023/07/21 01:35:50;;;;;;;2.90;1.85;;;;;;;;;;10266285;28;20062;-56
2023/07/21 01:40:52;;;;;;;4.15;1.80;;;;;;;;;;10267271;28;20049;-56
2023/07/21 01:45:52;;;;;;;4.65;1.95;;;;;;;;;;10265779;28;20037;-55
2023/07/21 01:50:56;;;;;;;2.28;1.90;;;;;;;;;;10283914;28;20497;-53
2023/07/21 01:56:13;;;;;;;3.70;2.10;;;;;;;;;;10282879;28;20157;-55
2023/07/21 02:01:16;;;;;;;2.70;1.83;;;;;;;;;;10265785;28;20030;-55
2023/07/21 02:06:17;;;;;;;3.92;1.92;;;;;;;;;;10270071;28;20030;-53
2023/07/21 02:11:20;;;;;;;6.32;2.05;;;;;;;;;;10291766;28;20114;-55
2023/07/21 02:16:20;;;;;;;2.35;1.55;;;;;;;;;;10291611;28;20030;-55
2023/07/21 02:21:21;;;;;;;3.13;1.65;;;;;;;;;;10291872;28;20041;-55
2023/07/21 02:26:22;;;;;;;3.45;1.90;;;;;;;;;;10294623;28;20167;-56
2023/07/21 02:31:22;;;;;;;4.18;1.77;;;;;;;;;;10289852;28;20379;-56
2023/07/21 02:36:23;;;;;;;2.25;1.77;;;;;;;;;;10288084;28;20404;-55
2023/07/21 02:41:23;;;;;;;1.63;1.48;;;;;;;;;;10290412;28;20082;-55
2023/07/21 02:46:24;;;;;;;2.50;1.60;;;;;;;;;;10290533;28;20463;-55
2023/07/21 02:51:25;;;;;;;3.42;1.90;;;;;;;;;;10294809;28;20053;-55
2023/07/21 02:56:25;;;;;;;2.42;1.80;;;;;;;;;;10295436;28;21567;-55
2023/07/21 03:01:26;;;;;;;3.25;1.70;;;;;;;;;;10290429;28;20153;-55
2023/07/21 03:06:30;;;;;;;2.15;1.67;;;;;;;;;;10273229;28;20088;-55
2023/07/21 03:11:30;;;;;;;1.60;1.50;;;;;;;;;;10297460;28;20050;-55
2023/07/21 03:16:31;;;;;;;3.38;1.80;;;;;;;;;;10287160;28;20439;-54
2023/07/21 03:21:31;;;;;;;2.13;1.60;;;;;;;;;;10289584;28;20367;-55
2023/07/21 03:26:32;;;;;;;3.75;2.00;;;;;;;;;;10296936;28;20458;-55
2023/07/21 03:31:34;;;;;;;4.38;1.80;;;;;;;;;;10288644;28;20047;-55
2023/07/21 03:36:34;;;;;;;2.60;1.88;;;;;;;;;;10288208;28;20510;-54
2023/07/21 03:41:35;;;;;;;1.98;1.63;;;;;;;;;;10288888;28;20034;-55
2023/07/21 03:46:36;;;;;;;2.00;1.70;;;;;;;;;;10286687;28;20031;-54
2023/07/21 03:51:39;;;;;;;2.65;1.70;;;;;;;;;;10287508;28;20105;-55
2023/07/21 03:56:39;;;;;;;1.77;1.50;;;;;;;;;;10285867;28;20041;-56
2023/07/21 04:01:40;;;;;;;3.97;1.60;;;;;;;;;;10286380;28;20494;-55
2023/07/21 04:06:42;;;;;;;2.47;1.83;;;;;;;;;;10285920;28;20031;-56
2023/07/21 04:11:43;;;;;;;2.40;1.70;;;;;;;;;;10274857;28;20510;-55
2023/07/21 04:16:44;;;;;;;2.67;1.65;;;;;;;;;;10286280;28;20023;-56
2023/07/21 04:21:44;;;;;;;1.67;1.50;;;;;;;;;;10285959;28;20038;-56
2023/07/21 04:26:45;;;;;;;1.70;1.60;;;;;;;;;;10285359;28;20031;-56
2023/07/21 04:31:45;;;;;;;2.20;1.98;;;;;;;;;;10266252;28;20077;-55
2023/07/21 04:36:46;;;;;;;2.03;1.70;;;;;;;;;;10285919;28;20031;-55
2023/07/21 04:41:47;;;;;;;3.95;1.63;;;;;;;;;;10283985;28;20030;-54
2023/07/21 04:46:48;;;;;;;2.45;1.77;;;;;;;;;;10285146;28;20439;-54
2023/07/21 04:51:49;;;;;;;2.05;1.38;;;;;;;;;;10285519;28;20092;-54
2023/07/21 04:56:50;;;;;;;2.28;1.65;;;;;;;;;;10286371;28;20446;-55
2023/07/21 05:01:50;;;;;;;9.00;2.10;;;;;;;;;;10286263;28;20038;-56
2023/07/21 05:06:51;;;;;;;2.33;1.80;;;;;;;;;;10285899;28;20022;-56
2023/07/21 05:11:51;;;;;;;3.72;1.75;;;;;;;;;;10285020;28;20045;-56
2023/07/21 05:16:52;;;;;;;3.35;2.15;;;;;;;;;;10285602;28;20442;-56
2023/07/21 05:21:53;;;;;;;2.83;1.90;;;;;;;;;;10284807;28;20054;-57
2023/07/21 05:26:54;;;;;;;2.50;1.90;;;;;;;;;;10285890;28;20382;-56
2023/07/21 05:31:55;;;;;;;2.22;1.70;;;;;;;;;;10284426;28;20066;-56
2023/07/21 05:47:45;;;;;;;7.80;2.10;;;;;;;;;;10502719;27;20659;-62
2023/07/21 05:52:50;;;;;;;13.65;2.03;;;;;;;;;;10468013;28;20586;-60
2023/07/21 05:57:51;;;;;;;13.05;3.85;;;;;;;;;;10470397;28;20114;-58
2023/07/21 06:02:52;;;;;;;10.65;3.60;;;;;;;;;;10478006;28;20062;-55
2023/07/21 06:07:53;;;;;;;9.93;3.65;;;;;;;;;;10471418;28;20025;-60
2023/07/21 06:12:54;;;;;;;9.82;3.97;;;;;;;;;;10465613;28;20591;-60
2023/07/21 06:17:55;;;;;;;26.75;4.15;;;;;;;;;;10470400;28;20107;-59
2023/07/21 06:22:57;;;;;;;8.02;3.10;;;;;;;;;;10477691;28;20495;-61
2023/07/21 06:27:58;;;;;;;7.55;3.17;;;;;;;;;;10475077;28;20058;-61
2023/07/21 06:32:58;;;;;;;14.88;3.55;;;;;;;;;;10476786;28;20039;-62
2023/07/21 06:37:59;;;;;;;7.93;3.80;;;;;;;;;;10481798;28;20029;-62
2023/07/21 06:42:59;;;;;;;5.55;3.38;;;;;;;;;;10476029;28;20021;-58
2023/07/21 06:48:00;;;;;;;13.20;3.75;;;;;;;;;;10419885;28;20025;-58
2023/07/21 06:53:04;;;;;;;8.77;3.72;;;;;;;;;;10416621;28;20032;-58
2023/07/21 06:58:05;;;;;;;6.80;3.58;;;;;;;;;;10415889;28;20108;-61
2023/07/21 07:03:06;;;;;;;5.63;2.67;;;;;;;;;;10415930;28;20033;-58
2023/07/21 07:08:07;;;;;;;13.60;3.80;;;;;;;;;;10427956;28;20041;-58
2023/07/21 07:13:08;;;;;;;9.50;3.28;;;;;;;;;;10415408;28;20030;-58
2023/07/21 07:18:11;;;;;;;13.13;3.47;;;;;;;;;;10415327;28;20448;-59
2023/07/21 07:23:12;;;;;;;8.20;3.15;;;;;;;;;;10414604;28;20060;-60
2023/07/21 07:28:12;;;;;;;7.55;3.15;;;;;;;;;;10415658;28;20036;-59
2023/07/21 07:33:14;;;;;;;6.32;3.30;;;;;;;;;;10414791;28;20025;-60
2023/07/21 07:38:26;;;;;;;5.43;3.00;;;;;;;;;;10413711;28;20021;-59
2023/07/21 07:43:27;;;;;;;9.13;3.00;;;;;;;;;;10413180;28;20049;-60
2023/07/21 07:48:27;;;;;;;5.60;2.70;;;;;;;;;;10414278;28;20033;-60
2023/07/21 07:53:28;;;;;;;3.33;2.90;;;;;;;;;;10413554;28;20034;-58
2023/07/21 07:58:29;;;;;;;7.90;3.20;;;;;;;;;;10412270;28;20037;-59
2023/07/21 08:03:30;;;;;;;11.60;2.80;;;;;;;;;;10413558;28;20048;-59
2023/07/21 08:08:31;;;;;;;5.35;2.97;;;;;;;;;;10413502;28;20025;-62
2023/07/21 08:13:31;;;;;;;5.07;2.97;;;;;;;;;;10412396;28;20036;-58
2023/07/21 08:18:32;;;;;;;4.82;3.08;;;;;;;;;;10413132;28;20029;-58
2023/07/21 08:23:32;;;;;;;5.65;2.97;;;;;;;;;;10412642;28;20032;-59
2023/07/21 08:28:33;;;;;;;9.10;3.38;;;;;;;;;;10412422;28;20091;-59
2023/07/21 08:33:33;;;;;;;6.43;3.20;;;;;;;;;;10412387;28;20036;-60
2023/07/21 08:38:34;;;;;;;8.63;3.40;;;;;;;;;;10411367;28;20025;-60
2023/07/21 08:43:36;;;;;;;5.30;2.70;;;;;;;;;;10410729;28;20067;-59
2023/07/21 08:48:39;;;;;;;8.20;2.90;;;;;;;;;;10412525;28;20049;-58
2023/07/21 08:53:40;;;;;;;9.07;3.00;;;;;;;;;;10410926;28;20057;-59
2023/07/21 08:58:41;;;;;;;7.43;3.30;;;;;;;;;;10411686;28;20832;-59
2023/07/21 09:03:46;;;;;;;9.30;3.20;;;;;;;;;;10411353;28;20029;-61
2023/07/21 09:08:50;;;;;;;8.70;3.40;;;;;;;;;;10410906;28;20103;-58
2023/07/21 09:13:57;;;;;;;8.60;3.28;;;;;;;;;;10412333;28;20021;-59
2023/07/21 09:18:57;;;;;;;12.73;3.63;;;;;;;;;;10422248;28;20036;-59
2023/07/21 09:24:04;;;;;;;6.28;2.90;;;;;;;;;;10410946;28;20370;-59
2023/07/21 09:29:18;;;;;;;4.60;3.10;;;;;;;;;;10410237;28;20056;-59
2023/07/21 09:34:19;;;;;;;6.45;3.15;;;;;;;;;;10410400;28;20025;-59
2023/07/21 09:39:20;;;;;;;7.88;3.10;;;;;;;;;;10410114;28;20056;-59
2023/07/21 09:44:21;;;;;;;6.10;3.03;;;;;;;;;;10409200;28;20504;-59
2023/07/21 09:49:22;;;;;;;5.20;3.40;;;;;;;;;;10410889;28;20032;-59
2023/07/21 09:54:27;;;;;;;7.65;3.22;;;;;;;;;;10418654;28;20021;-59
2023/07/21 09:59:31;;;;;;;7.55;3.00;;;;;;;;;;10424913;28;20017;-59
2023/07/21 10:04:32;;;;;;;7.78;3.30;;;;;;;;;;10422017;28;20014;-58
2023/07/21 10:09:33;;;;;;;7.65;3.03;;;;;;;;;;10421596;28;20468;-58
2023/07/21 10:14:36;;;;;;;12.80;3.58;;;;;;;;;;10409602;28;20171;-58
2023/07/21 10:19:42;;;;;;;6.43;3.15;;;;;;;;;;10410357;28;20057;-59
2023/07/21 10:24:48;;;;;;;7.15;3.28;;;;;;;;;;10416604;28;20488;-59
2023/07/21 10:29:56;;;;;;;6.13;3.00;;;;;;;;;;10417040;28;20029;-59
2023/07/21 10:34:56;;;;;;;5.30;2.80;;;;;;;;;;10417235;28;20065;-59
2023/07/21 10:40:06;;;;;;;5.45;3.70;;;;;;;;;;10417183;28;20496;-59
2023/07/21 10:45:08;;;;;;;4.03;3.08;;;;;;;;;;10418582;28;20052;-60
2023/07/21 10:50:09;;;;;;;6.43;2.92;;;;;;;;;;10416184;28;20029;-59
2023/07/21 10:55:17;;;;;;;6.00;3.20;;;;;;;;;;10416165;28;20484;-59
2023/07/21 11:00:18;;;;;;;8.60;2.97;;;;;;;;;;10422744;28;20116;-59
2023/07/21 11:05:18;;;;;;;10.32;3.15;;;;;;;;;;10425984;28;20034;-60
2023/07/21 11:10:19;;;;;;;5.95;3.38;;;;;;;;;;10445419;28;20383;-60
2023/07/21 11:15:20;;;;;;;6.13;3.42;;;;;;;;;;10422403;28;20133;-60
2023/07/21 11:20:20;;;;;;;11.85;3.65;;;;;;;;;;10437053;28;20472;-63
2023/07/21 11:25:21;;;;;;;12.60;3.75;;;;;;;;;;10434871;28;20047;-62
2023/07/21 11:30:22;;;;;;;11.82;3.97;;;;;;;;;;10433483;28;20045;-63
2023/07/21 11:35:32;;;;;;;6.70;3.13;;;;;;;;;;10422428;28;20121;-63
2023/07/21 11:40:33;;;;;;;7.35;3.72;;;;;;;;;;10437075;28;20066;-63
2023/07/21 11:45:39;;;;;;;11.52;3.40;;;;;;;;;;10443202;28;20086;-60
2023/07/21 11:50:50;;;;;;;8.68;3.35;;;;;;;;;;10423396;28;20251;-60
2023/07/21 11:55:52;;;;;;;15.88;3.63;;;;;;;;;;10438861;28;20477;-59
2023/07/21 12:00:52;;;;;;;12.07;3.83;;;;;;;;;;10425691;28;20051;-62
2023/07/21 12:05:53;;;;;;;15.90;4.70;;;;;;;;;;10434956;28;20441;-59
2023/07/21 12:10:54;;;;;;;11.20;4.20;;;;;;;;;;10421776;28;20113;-58
2023/07/21 12:15:54;;;;;;;9.45;3.92;;;;;;;;;;10414950;28;20094;-58
2023/07/21 12:20:55;;;;;;;10.13;4.15;;;;;;;;;;10423254;28;20032;-58
2023/07/21 12:25:56;;;;;;;7.03;3.33;;;;;;;;;;10418236;28;20021;-58
2023/07/21 12:30:57;;;;;;;13.70;3.55;;;;;;;;;;10425691;28;20048;-58
2023/07/21 12:35:57;;;;;;;7.10;3.42;;;;;;;;;;10434421;28;20033;-58
2023/07/21 12:40:58;;;;;;;7.03;3.65;;;;;;;;;;10415231;28;20396;-58
2023/07/21 12:46:02;;;;;;;12.38;4.13;;;;;;;;;;10413987;28;20120;-58
2023/07/21 12:51:03;;;;;;;9.57;3.58;;;;;;;;;;10434193;28;20025;-58
2023/07/21 12:56:04;;;;;;;8.60;3.70;;;;;;;;;;10413919;28;20465;-60
2023/07/21 13:01:05;;;;;;;6.32;3.17;;;;;;;;;;10427054;28;20079;-60
2023/07/21 13:06:06;;;;;;;7.25;3.10;;;;;;;;;;10436692;28;20083;-58
2023/07/21 13:11:07;;;;;;;10.82;3.30;;;;;;;;;;10418188;28;20018;-57
2023/07/21 13:16:07;;;;;;;10.68;3.80;;;;;;;;;;10430935;28;20039;-58
2023/07/21 13:21:08;;;;;;;6.65;3.17;;;;;;;;;;10418180;28;20029;-58
2023/07/21 13:26:09;;;;;;;8.82;3.10;;;;;;;;;;10434367;28;20108;-58
2023/07/21 13:31:09;;;;;;;14.77;3.30;;;;;;;;;;10433922;28;20025;-58
2023/07/21 13:36:10;;;;;;;6.25;3.00;;;;;;;;;;10434857;28;20036;-59
2023/07/21 13:41:10;;;;;;;6.53;3.10;;;;;;;;;;10447549;28;20033;-58
2023/07/21 13:46:11;;;;;;;6.28;2.67;;;;;;;;;;10411000;28;20049;-58
2023/07/21 13:51:12;;;;;;;9.02;2.90;;;;;;;;;;10409812;28;20079;-58
2023/07/21 13:56:12;;;;;;;6.90;2.60;;;;;;;;;;10425618;28;20223;-59
2023/07/21 14:01:13;;;;;;;5.75;2.67;;;;;;;;;;10441289;28;20063;-58
2023/07/21 14:06:16;;;;;;;5.25;2.75;;;;;;;;;;10455853;28;20036;-58
2023/07/21 14:11:16;;;;;;;10.05;2.92;;;;;;;;;;10455076;28;20025;-58
2023/07/21 14:16:17;;;;;;;7.75;3.10;;;;;;;;;;10454650;28;20021;-58
2023/07/21 14:21:18;;;;;;;4.40;2.53;;;;;;;;;;10454902;28;20013;-59
2023/07/21 14:26:19;;;;;;;7.35;2.80;;;;;;;;;;10454337;28;20067;-58
2023/07/21 14:31:20;;;;;;;4.63;2.78;;;;;;;;;;10454957;28;20368;-58
2023/07/21 14:36:20;;;;;;;7.82;2.40;;;;;;;;;;10454221;28;20534;-58
2023/07/21 14:41:21;;;;;;;9.32;3.00;;;;;;;;;;10454299;28;20029;-59
2023/07/21 14:46:21;;;;;;;7.75;2.40;;;;;;;;;;10415660;28;20049;-58
2023/07/21 14:51:22;;;;;;;10.75;2.50;;;;;;;;;;10416476;28;20104;-58
2023/07/21 14:56:23;;;;;;;6.20;2.60;;;;;;;;;;10416078;28;20034;-59
2023/07/21 15:01:23;;;;;;;7.55;2.45;;;;;;;;;;10415893;28;20388;-58
2023/07/21 15:06:24;;;;;;;8.18;2.50;;;;;;;;;;10420488;28;20059;-58
2023/07/21 15:11:24;;;;;;;5.25;2.70;;;;;;;;;;10420975;28;20025;-58
2023/07/21 15:16:25;;;;;;;8.27;2.22;;;;;;;;;;10436810;28;20104;-58
2023/07/21 15:21:26;;;;;;;3.47;2.00;;;;;;;;;;10441118;28;20052;-58
2023/07/21 15:26:26;;;;;;;4.68;2.40;;;;;;;;;;10427524;28;20397;-59
2023/07/21 15:31:27;;;;;;;3.35;2.13;;;;;;;;;;10422606;28;20120;-58
2023/07/21 15:36:28;;;;;;;2.47;2.10;;;;;;;;;;10449914;28;20032;-58
2023/07/21 15:41:28;;;;;;;2.42;1.90;;;;;;;;;;10449535;28;20025;-58
2023/07/21 15:46:29;;;;;;;3.88;1.88;;;;;;;;;;10412901;28;20057;-58
2023/07/21 15:51:30;;;;;;;7.90;2.17;;;;;;;;;;10413568;28;20026;-60
2023/07/21 15:56:30;;;;;;;12.55;2.15;;;;;;;;;;10426218;28;20219;-58
2023/07/21 16:01:31;;;;;;;12.43;2.97;;;;;;;;;;10425750;28;20018;-59
2023/07/21 16:06:31;;;;;;;9.73;2.60;;;;;;;;;;10425869;28;20154;-59
2023/07/21 16:11:32;;;;;;;8.43;2.55;;;;;;;;;;10413163;28;20412;-59
2023/07/21 16:16:33;;;;;;;7.22;2.60;;;;;;;;;;10412881;28;20080;-58
2023/07/21 16:21:33;;;;;;;7.03;2.33;;;;;;;;;;10416215;28;20075;-58
2023/07/21 16:26:34;;;;;;;7.25;2.10;;;;;;;;;;10436177;28;20362;-58
2023/07/21 16:31:35;;;;;;;8.05;2.33;;;;;;;;;;10450100;28;20033;-58
2023/07/21 16:36:35;;;;;;;3.40;2.00;;;;;;;;;;10448941;28;20464;-58
2023/07/21 16:41:36;;;;;;;5.95;2.20;;;;;;;;;;10442200;28;20121;-58
2023/07/21 16:46:36;;;;;;;5.45;2.85;;;;;;;;;;10410845;28;20067;-58
2023/07/21 16:51:37;;;;;;;8.65;2.45;;;;;;;;;;10411500;28;20021;-58
2023/07/21 16:56:38;;;;;;;7.40;2.65;;;;;;;;;;10410938;28;20030;-58
2023/07/21 17:01:39;;;;;;;8.32;2.40;;;;;;;;;;10411450;28;20030;-58
2023/07/21 17:06:40;;;;;;;7.10;2.20;;;;;;;;;;10422445;28;20025;-58
2023/07/21 17:11:41;;;;;;;4.97;2.08;;;;;;;;;;10411977;28;20025;-59
2023/07/21 17:16:42;;;;;;;6.68;2.15;;;;;;;;;;10410876;28;20065;-58
2023/07/21 17:21:42;;;;;;;7.07;2.03;;;;;;;;;;10410775;28;20126;-59
2023/07/21 17:26:43;;;;;;;7.10;2.40;;;;;;;;;;10410196;28;20084;-58
2023/07/21 17:31:44;;;;;;;2.85;1.98;;;;;;;;;;10410933;28;20030;-59
2023/07/21 17:36:44;;;;;;;4.05;2.35;;;;;;;;;;10409521;28;20088;-59
2023/07/21 17:41:46;;;;;;;8.45;2.25;;;;;;;;;;10417207;28;20022;-58
2023/07/21 17:46:47;;;;;;;8.95;2.60;;;;;;;;;;10409978;28;20071;-58
2023/07/21 17:51:47;;;;;;;5.78;2.20;;;;;;;;;;10410150;28;20025;-58
2023/07/21 17:56:48;;;;;;;6.15;2.15;;;;;;;;;;10409234;28;20457;-58
2023/07/21 18:01:49;;;;;;;3.45;2.05;;;;;;;;;;10409470;28;20029;-58
2023/07/21 18:06:49;;;;;;;7.75;2.17;;;;;;;;;;10409351;28;20036;-58
2023/07/21 18:11:50;;;;;;;3.47;1.90;;;;;;;;;;10409337;28;20064;-60
2023/07/21 18:16:51;;;;;;;3.88;1.77;;;;;;;;;;10409250;28;20033;-59
2023/07/21 18:21:51;;;;;;;3.45;1.90;;;;;;;;;;10409692;28;20029;-59
2023/07/21 18:26:52;;;;;;;3.88;2.15;;;;;;;;;;10409710;28;20392;-59
2023/07/21 18:31:52;;;;;;;4.60;2.17;;;;;;;;;;10409994;28;20029;-58
2023/07/21 18:36:53;;;;;;;3.25;1.90;;;;;;;;;;10408807;28;20049;-58
2023/07/21 18:41:54;;;;;;;2.35;1.73;;;;;;;;;;10418744;28;20525;-58
2023/07/21 18:46:54;;;;;;;4.93;2.00;;;;;;;;;;10424725;28;20036;-59
2023/07/21 18:51:55;;;;;;;3.35;2.03;;;;;;;;;;10442431;28;20388;-59
2023/07/21 18:56:55;;;;;;;5.07;1.92;;;;;;;;;;10446896;28;20042;-58
2023/07/21 19:01:56;;;;;;;6.25;2.00;;;;;;;;;;10443203;28;20025;-64
2023/07/21 19:06:57;;;;;;;4.35;1.70;;;;;;;;;;10440230;28;20064;-59
2023/07/21 19:11:57;;;;;;;3.17;1.98;;;;;;;;;;10429737;28;20029;-60
2023/07/21 19:16:58;;;;;;;3.08;2.05;;;;;;;;;;10435687;28;20029;-58
2023/07/21 19:21:58;;;;;;;2.65;1.88;;;;;;;;;;10439846;28;20458;-58
2023/07/21 19:26:59;;;;;;;2.30;1.58;;;;;;;;;;10434816;28;20041;-58
2023/07/21 19:32:00;;;;;;;2.78;1.60;;;;;;;;;;10428153;28;20029;-58
2023/07/21 19:37:00;;;;;;;2.17;1.67;;;;;;;;;;10422989;28;20135;-59
2023/07/21 19:42:01;;;;;;;4.00;1.70;;;;;;;;;;10419860;28;21086;-59
2023/07/21 19:47:02;;;;;;;5.32;1.70;;;;;;;;;;10443140;28;20033;-59
2023/07/21 19:52:03;;;;;;;3.90;1.98;;;;;;;;;;10451720;28;20028;-58
2023/07/21 19:57:05;;;;;;;3.90;1.55;;;;;;;;;;10427768;28;20476;-58
2023/07/21 20:02:06;;;;;;;1.67;1.50;;;;;;;;;;10449911;28;20025;-58
2023/07/21 20:07:06;;;;;;;3.08;1.60;;;;;;;;;;10449588;28;20025;-58
2023/07/21 20:12:07;;;;;;;6.57;1.55;;;;;;;;;;10450339;28;20063;-58
2023/07/21 20:17:08;;;;;;;3.55;1.85;;;;;;;;;;10418698;28;20469;-58
2023/07/21 20:22:08;;;;;;;2.88;1.63;;;;;;;;;;10450417;28;20029;-58
2023/07/21 20:27:09;;;;;;;3.13;2.00;;;;;;;;;;10449357;28;20029;-59
2023/07/21 20:32:10;;;;;;;2.90;1.67;;;;;;;;;;10450204;28;20032;-61
2023/07/21 20:37:10;;;;;;;4.55;1.90;;;;;;;;;;10448852;28;20131;-58
2023/07/21 20:42:11;;;;;;;1.60;1.50;;;;;;;;;;10443307;28;20032;-59
2023/07/21 20:47:11;;;;;;;3.38;1.98;;;;;;;;;;10410605;28;20030;-58
2023/07/21 20:52:12;;;;;;;3.15;2.10;;;;;;;;;;10410960;28;20124;-62
2023/07/21 20:57:13;;;;;;;3.58;1.98;;;;;;;;;;10410812;28;20480;-59
2023/07/21 21:02:14;;;;;;;2.47;1.50;;;;;;;;;;10417105;28;20468;-58
2023/07/21 21:07:15;;;;;;;3.60;1.92;;;;;;;;;;10445743;28;20013;-59
2023/07/21 21:12:16;;;;;;;10.05;2.28;;;;;;;;;;10447400;28;20511;-59
2023/07/21 21:17:16;;;;;;;7.63;2.10;;;;;;;;;;10446813;28;20032;-58
2023/07/21 21:22:17;;;;;;;4.00;1.80;;;;;;;;;;10435906;28;20045;-59
2023/07/21 21:27:17;;;;;;;5.60;2.42;;;;;;;;;;10444905;28;20391;-58
2023/07/21 21:32:18;;;;;;;4.88;2.03;;;;;;;;;;10446870;28;20222;-59
2023/07/21 21:37:19;;;;;;;5.57;1.98;;;;;;;;;;10447169;28;20028;-59
2023/07/21 21:42:19;;;;;;;3.10;1.83;;;;;;;;;;10440805;28;20044;-58
2023/07/21 21:47:20;;;;;;;2.38;1.83;;;;;;;;;;10409757;28;20054;-58
2023/07/21 21:52:20;;;;;;;2.60;1.95;;;;;;;;;;10418492;28;20033;-59
2023/07/21 21:57:21;;;;;;;4.20;1.98;;;;;;;;;;10424836;28;20075;-58
2023/07/21 22:02:22;;;;;;;2.65;1.80;;;;;;;;;;10417226;28;20035;-58
2023/07/21 22:07:22;;;;;;;9.38;2.20;;;;;;;;;;10409793;28;20029;-57
2023/07/21 22:12:23;;;;;;;4.88;2.17;;;;;;;;;;10415700;28;20503;-58
2023/07/21 22:17:24;;;;;;;3.45;1.90;;;;;;;;;;10412435;28;20124;-57
2023/07/21 22:22:29;;;;;;;4.18;1.70;;;;;;;;;;10423332;28;20037;-57
2023/07/21 22:27:29;;;;;;;2.20;1.80;;;;;;;;;;10417534;28;20032;-58
2023/07/21 22:32:30;;;;;;;3.20;1.80;;;;;;;;;;10419947;28;20373;-58
2023/07/21 22:37:31;;;;;;;3.22;1.95;;;;;;;;;;10429880;28;20104;-57
2023/07/21 22:42:31;;;;;;;3.35;1.98;;;;;;;;;;10415981;28;20017;-58
2023/07/21 22:47:32;;;;;;;5.45;2.00;;;;;;;;;;10427734;28;20069;-57
2023/07/21 22:52:34;;;;;;;4.22;1.85;;;;;;;;;;10442798;28;20044;-57
2023/07/21 22:57:36;;;;;;;2.53;1.75;;;;;;;;;;10431537;28;20029;-58
2023/07/21 23:02:37;;;;;;;2.85;1.73;;;;;;;;;;10430351;28;20534;-58
2023/07/21 23:07:38;;;;;;;2.00;1.80;;;;;;;;;;10425025;28;20029;-58
2023/07/21 23:12:39;;;;;;;3.08;1.90;;;;;;;;;;10431314;28;20025;-57
2023/07/21 23:17:39;;;;;;;3.72;1.80;;;;;;;;;;10423129;28;20112;-58
2023/07/21 23:22:40;;;;;;;2.22;1.63;;;;;;;;;;10415418;28;20022;-58
2023/07/21 23:27:41;;;;;;;3.78;1.85;;;;;;;;;;10414568;28;20499;-58
2023/07/21 23:32:46;;;;;;;4.00;1.70;;;;;;;;;;10415096;28;20032;-57
2023/07/21 23:37:47;;;;;;;1.92;1.73;;;;;;;;;;10415167;28;20155;-58
2023/07/21 23:42:48;;;;;;;3.30;1.90;;;;;;;;;;10413581;28;20052;-57
2023/07/21 23:47:49;;;;;;;5.40;2.00;;;;;;;;;;10414091;28;20103;-57
2023/07/21 23:52:49;;;;;;;5.38;1.98;;;;;;;;;;10415197;28;20136;-58
2023/07/21 23:57:50;;;;;;;3.25;1.60;;;;;;;;;;10426239;28;20042;-63
